createdAt,value
2018-11-02T00:03:17.115Z,100813.00
2018-11-02T00:08:10.549Z,100820.00
2018-11-02T00:13:04.015Z,100813.00
2018-11-02T00:17:57.358Z,100783.00
2018-11-02T00:22:50.681Z,100801.00
2018-11-02T00:27:44.114Z,100812.00
2018-11-02T00:32:37.457Z,100825.00
2018-11-02T00:37:31.056Z,100844.00
2018-11-02T00:42:24.435Z,100853.00
2018-11-02T00:47:17.900Z,100847.00
2018-11-02T00:52:11.257Z,100844.00
2018-11-02T00:57:04.905Z,100853.00
2018-11-02T01:01:59.789Z,100850.00
2018-11-02T01:06:53.148Z,100864.00
2018-11-02T01:11:46.571Z,100876.00
2018-11-02T01:16:40.041Z,100878.00
2018-11-02T01:21:33.393Z,100889.00
2018-11-02T01:26:26.784Z,100903.00
2018-11-02T01:31:20.361Z,100906.00
2018-11-02T01:36:13.701Z,100901.00
2018-11-02T01:41:07.124Z,100912.00
2018-11-02T01:46:00.857Z,100928.00
2018-11-02T01:50:55.198Z,100936.00
2018-11-02T01:55:48.665Z,100946.00
2018-11-02T02:00:41.989Z,100954.00
2018-11-02T02:05:35.322Z,100955.00
2018-11-02T02:10:29.279Z,100977.00
2018-11-02T02:15:23.442Z,100989.00
2018-11-02T02:20:16.732Z,100995.00
2018-11-02T02:25:10.140Z,100996.00
2018-11-02T02:30:04.122Z,101000.00
2018-11-02T02:34:57.437Z,101005.00
2018-11-02T02:39:50.792Z,101008.00
2018-11-02T02:44:44.095Z,101014.00
2018-11-02T02:49:37.459Z,101030.00
2018-11-02T02:54:30.825Z,101047.00
2018-11-02T02:59:24.156Z,101058.00
2018-11-02T03:04:17.509Z,101054.00
2018-11-02T03:09:11.653Z,101062.00
2018-11-02T03:14:05.275Z,101071.00
2018-11-02T03:18:58.666Z,101080.00
2018-11-02T03:23:52.082Z,101085.00
2018-11-02T03:28:45.477Z,101083.00
2018-11-02T03:33:38.777Z,101092.00
2018-11-02T03:38:32.222Z,101099.00
2018-11-02T03:43:25.832Z,101110.00
2018-11-02T03:48:19.181Z,101124.00
2018-11-02T03:53:12.470Z,101136.00
2018-11-02T03:58:06.017Z,101148.00
2018-11-02T04:02:59.398Z,101159.00
2018-11-02T04:07:52.752Z,101156.00
2018-11-02T04:12:46.142Z,101157.00
2018-11-02T04:17:39.622Z,101173.00
2018-11-02T04:22:33.708Z,101190.00
2018-11-02T04:27:27.114Z,101195.00
2018-11-02T04:32:20.527Z,101212.00
2018-11-02T04:37:13.869Z,101228.00
2018-11-02T04:42:07.227Z,101239.00
2018-11-02T04:47:00.526Z,101245.00
2018-11-02T04:51:53.874Z,101262.00
2018-11-02T04:56:47.243Z,101274.00
2018-11-02T05:01:40.796Z,101287.00
2018-11-02T05:06:34.238Z,101292.00
2018-11-02T05:11:27.647Z,101299.00
2018-11-02T05:16:20.978Z,101306.00
2018-11-02T05:21:14.369Z,101317.00
2018-11-02T05:26:07.984Z,101327.00
2018-11-02T05:31:02.564Z,101340.00
2018-11-02T05:35:56.413Z,101350.00
2018-11-02T05:40:50.502Z,101365.00
2018-11-02T05:45:43.814Z,101375.00
2018-11-02T05:50:37.238Z,101380.00
2018-11-02T05:55:31.014Z,101380.00
2018-11-02T06:00:24.390Z,101387.00
2018-11-02T06:05:17.797Z,101388.00
2018-11-02T06:10:11.679Z,101398.00
2018-11-02T06:15:05.239Z,101405.00
2018-11-02T06:20:00.074Z,101408.00
2018-11-02T06:24:53.495Z,101418.00
2018-11-02T06:29:47.668Z,101429.00
2018-11-02T06:34:41.180Z,101442.00
2018-11-02T06:39:34.529Z,101456.00
2018-11-02T06:44:34.664Z,101474.00
2018-11-02T06:49:27.992Z,101488.00
2018-11-02T06:54:21.438Z,101493.00
2018-11-02T06:59:15.139Z,101497.00
2018-11-02T07:04:09.138Z,101495.00
2018-11-02T07:09:04.118Z,101505.00
2018-11-02T07:13:58.418Z,101515.00
2018-11-02T07:18:52.627Z,101524.00
2018-11-02T07:23:46.110Z,101512.00
2018-11-02T07:28:40.063Z,101513.00
2018-11-02T07:33:33.367Z,101522.00
2018-11-02T07:38:26.781Z,101528.00
2018-11-02T07:43:20.188Z,101533.00
2018-11-02T07:48:13.756Z,101533.00
2018-11-02T07:53:07.083Z,101534.00
2018-11-02T07:58:00.524Z,101536.00
2018-11-02T08:02:53.858Z,101537.00
2018-11-02T08:07:47.426Z,101532.00
2018-11-02T08:12:40.865Z,101538.00
2018-11-02T08:17:34.323Z,101544.00
2018-11-02T08:22:27.761Z,101551.00
2018-11-02T08:27:21.081Z,101560.00
2018-11-02T08:32:14.844Z,101568.00
2018-11-02T08:37:08.374Z,101562.00
2018-11-02T08:42:01.701Z,101565.00
2018-11-02T08:46:55.123Z,101566.00
2018-11-02T08:51:48.465Z,101565.00
2018-11-02T08:56:41.802Z,101576.00
2018-11-02T09:01:35.203Z,101576.00
2018-11-02T09:06:28.586Z,101584.00
2018-11-02T09:11:22.041Z,101597.00
2018-11-02T09:16:15.400Z,101611.00
2018-11-02T09:21:08.735Z,101612.00
2018-11-02T09:26:02.405Z,101626.00
2018-11-02T09:30:55.743Z,101632.00
2018-11-02T09:35:50.247Z,101632.00
2018-11-02T09:40:43.593Z,101651.00
2018-11-02T09:45:36.978Z,101659.00
2018-11-02T09:50:30.630Z,101676.00
2018-11-02T09:55:24.121Z,101682.00
2018-11-02T10:00:17.508Z,101691.00
2018-11-02T10:05:11.825Z,101694.00
2018-11-02T10:10:07.639Z,101697.00
2018-11-02T10:15:01.013Z,101701.00
2018-11-02T10:19:55.094Z,101710.00
2018-11-02T10:24:48.488Z,101709.00
2018-11-02T10:29:42.892Z,101719.00
2018-11-02T10:34:36.593Z,101722.00
2018-11-02T10:39:30.264Z,101725.00
2018-11-02T10:44:35.015Z,101731.00
2018-11-02T10:49:28.408Z,101734.00
2018-11-02T10:54:21.786Z,101732.00
2018-11-02T10:59:15.148Z,101742.00
2018-11-02T11:04:08.597Z,101742.00
2018-11-02T11:09:01.935Z,101743.00
2018-11-02T11:13:55.309Z,101759.00
2018-11-02T11:18:48.702Z,101766.00
2018-11-02T11:23:42.227Z,101765.00
2018-11-02T11:28:35.833Z,101772.00
2018-11-02T11:33:29.287Z,101766.00
2018-11-02T11:38:22.808Z,101774.00
2018-11-02T11:43:16.315Z,101765.00
2018-11-02T11:48:09.798Z,101768.00
2018-11-02T11:53:04.679Z,101782.00
2018-11-02T11:57:58.098Z,101791.00
2018-11-02T12:02:52.411Z,101798.00
2018-11-02T12:07:46.015Z,101798.00
2018-11-02T12:12:39.642Z,101800.00
2018-11-02T12:17:33.316Z,101797.00
2018-11-02T12:22:26.915Z,101798.00
2018-11-02T12:27:20.911Z,101802.00
2018-11-02T12:32:14.471Z,101809.00
2018-11-02T12:37:08.410Z,101801.00
2018-11-02T12:42:01.700Z,101806.00
2018-11-02T12:46:55.063Z,101804.00
2018-11-02T12:51:48.504Z,101808.00
2018-11-02T12:56:42.004Z,101803.00
2018-11-02T13:01:35.828Z,101815.00
2018-11-02T13:06:29.460Z,101825.00
2018-11-02T13:11:22.902Z,101827.00
2018-11-02T13:16:16.320Z,101831.00
2018-11-02T13:21:09.597Z,101834.00
2018-11-02T13:26:03.263Z,101839.00
2018-11-02T13:30:56.556Z,101843.00
2018-11-02T13:35:49.924Z,101839.00
2018-11-02T13:40:43.332Z,101855.00
2018-11-02T13:45:36.796Z,101853.00
2018-11-02T13:50:30.243Z,101858.00
2018-11-02T13:55:23.562Z,101858.00
2018-11-02T14:00:17.891Z,101871.00
2018-11-02T14:05:12.681Z,101873.00
2018-11-02T14:10:06.964Z,101883.00
2018-11-02T14:15:00.412Z,101889.00
2018-11-02T14:19:53.850Z,101898.00
2018-11-02T14:24:47.411Z,101903.00
2018-11-02T14:29:41.043Z,101912.00
2018-11-02T14:34:34.401Z,101929.00
2018-11-02T14:39:27.792Z,101945.00
2018-11-02T14:44:21.202Z,101955.00
2018-11-02T14:49:14.998Z,101962.00
2018-11-02T14:54:08.410Z,101967.00
2018-11-02T14:59:01.805Z,101977.00
2018-11-02T15:03:55.190Z,101982.00
2018-11-02T15:08:48.865Z,101985.00
2018-11-02T15:13:42.340Z,101999.00
2018-11-02T15:18:35.661Z,102004.00
2018-11-02T15:23:28.998Z,102003.00
2018-11-02T15:28:22.399Z,102004.00
2018-11-02T15:33:15.705Z,102009.00
2018-11-02T15:38:09.650Z,102018.00
2018-11-02T15:43:03.008Z,102018.00
2018-11-02T15:47:56.626Z,102022.00
2018-11-02T15:52:50.055Z,102019.00
2018-11-02T15:57:43.476Z,102018.00
2018-11-02T16:02:37.051Z,102015.00
2018-11-02T16:07:30.525Z,102015.00
2018-11-02T16:12:24.130Z,102025.00
2018-11-02T16:17:17.649Z,102036.00
2018-11-02T16:22:11.261Z,102042.00
2018-11-02T16:27:04.944Z,102051.00
2018-11-02T16:31:58.727Z,102061.00
2018-11-02T16:36:52.533Z,102063.00
2018-11-02T16:41:45.966Z,102074.00
2018-11-02T16:46:39.591Z,102082.00
2018-11-02T16:51:33.053Z,102088.00
2018-11-02T16:56:26.692Z,102091.00
2018-11-02T17:01:20.284Z,102108.00
2018-11-02T17:06:14.080Z,102116.00
2018-11-02T17:11:07.474Z,102127.00
2018-11-02T17:16:01.011Z,102144.00
2018-11-02T17:20:54.614Z,102161.00
2018-11-02T17:25:47.931Z,102172.00
2018-11-02T17:30:41.624Z,102180.00
2018-11-02T17:35:35.292Z,102181.00
2018-11-02T17:40:28.717Z,102195.00
2018-11-02T17:45:22.167Z,102195.00
2018-11-02T17:50:16.160Z,102207.00
2018-11-02T17:55:09.734Z,102219.00
2018-11-02T18:00:03.342Z,102217.00
2018-11-02T18:04:56.905Z,102221.00
2018-11-02T18:09:50.623Z,102228.00
2018-11-02T18:14:44.061Z,102229.00
2018-11-02T18:19:37.675Z,102238.00
2018-11-02T18:24:31.147Z,102247.00
2018-11-02T18:29:24.529Z,102253.00
2018-11-02T18:34:18.098Z,102262.00
2018-11-02T18:39:13.982Z,102265.00
2018-11-02T18:44:07.388Z,102270.00
2018-11-02T18:49:00.970Z,102284.00
2018-11-02T18:53:54.529Z,102293.00
2018-11-02T18:58:48.145Z,102305.00
2018-11-02T19:03:41.743Z,102315.00
2018-11-02T19:08:35.194Z,102322.00
2018-11-02T19:13:28.750Z,102322.00
2018-11-02T19:18:22.035Z,102325.00
2018-11-02T19:23:15.622Z,102338.00
2018-11-02T19:28:09.173Z,102339.00
2018-11-02T19:33:02.829Z,102346.00
2018-11-02T19:37:56.475Z,102338.00
2018-11-02T19:42:49.832Z,102345.00
2018-11-02T19:47:49.085Z,102355.00
2018-11-02T19:52:42.601Z,102355.00
2018-11-02T19:57:36.274Z,102359.00
2018-11-02T20:02:29.733Z,102370.00
2018-11-02T20:07:23.143Z,102370.00
2018-11-02T20:12:16.577Z,102376.00
2018-11-02T20:17:10.100Z,102388.00
2018-11-02T20:22:03.505Z,102388.00
2018-11-02T20:26:56.973Z,102394.00
2018-11-02T20:31:50.568Z,102391.00
2018-11-02T20:36:44.432Z,102392.00
2018-11-02T20:41:38.043Z,102399.00
2018-11-02T20:46:31.519Z,102398.00
2018-11-02T20:51:24.908Z,102391.00
2018-11-02T20:56:18.328Z,102391.00
2018-11-02T21:01:11.713Z,102395.00
2018-11-02T21:06:05.581Z,102400.00
2018-11-02T21:10:58.962Z,102404.00
2018-11-02T21:15:52.395Z,102409.00
2018-11-02T21:20:45.799Z,102422.00
2018-11-02T21:25:39.336Z,102421.00
2018-11-02T21:30:32.700Z,102433.00
2018-11-02T21:35:26.157Z,102436.00
2018-11-02T21:40:20.925Z,102435.00
2018-11-02T21:45:15.596Z,102426.00
2018-11-02T21:50:09.730Z,102419.00
2018-11-02T21:55:03.311Z,102422.00
2018-11-02T21:59:57.024Z,102423.00
2018-11-02T22:04:50.513Z,102425.00
2018-11-02T22:09:44.030Z,102426.00
2018-11-02T22:14:37.543Z,102430.00
2018-11-02T22:19:31.084Z,102444.00
2018-11-02T22:24:24.401Z,102452.00
2018-11-02T22:29:17.795Z,102455.00
2018-11-02T22:34:11.144Z,102462.00
2018-11-02T22:39:07.190Z,102465.00
2018-11-02T22:44:01.010Z,102474.00
2018-11-02T22:48:54.515Z,102476.00
2018-11-02T22:53:49.216Z,102477.00
2018-11-02T22:58:43.481Z,102473.00
2018-11-02T23:03:36.861Z,102471.00
2018-11-02T23:08:31.351Z,102476.00
2018-11-02T23:13:25.099Z,102467.00
2018-11-02T23:18:18.475Z,102468.00
2018-11-02T23:23:11.851Z,102475.00
2018-11-02T23:28:05.256Z,102477.00
2018-11-02T23:32:58.640Z,102491.00
2018-11-02T23:37:52.031Z,102482.00
2018-11-02T23:42:45.387Z,102474.00
2018-11-02T23:47:39.044Z,102473.00
2018-11-02T23:52:32.399Z,102481.00
2018-11-02T23:57:26.410Z,102477.00
